CheckWX is a tool to help pilots better visualize weather data.  It is not intended as a substitute for an official pre-flight weather briefing.

13:20:28 UTC

KFLO TAF
Florence Regional Airport
Florence, South Carolina, USA
KFLO 102320Z 1100/1124 22008KT P6SM VCSH SCT060 BKN090 TEMPO 1101/1102 5SM -SHRA SCT025 BKN040 FM110200 35009KT P6SM SCT030 OVC050 TEMPO 1102/1104 -RA OVC025 FM110400 01010G16KT P6SM OVC020 TEMPO 1106/1110 5SM -DZ OVC010 FM111000 01012G19KT P6SM BKN015 FM111300 02010G16KT P6SM SCT020 BKN250 FM111700 36008KT P6SM SKC

Dec-11@
00:00 UTC

Dec-11 @ 00:00 UTC

Dec-11@
02:00 UTC

Dec-11 @ 02:00 UTC

KFLO 102320Z 1100/1124 22008KT P6SM VCSH SCT060 BKN090

Expired

Wind
  • 220° at 8 KTS
Cloud Levels
  • Scattered at 6,000' AGL
  • Broken at 9,000' AGL

Dec-11@
01:00 UTC

Dec-11 @ 01:00 UTC

Dec-11@
02:00 UTC

Dec-11 @ 02:00 UTC

TEMPO 1101/1102 5SM -SHRA SCT025 BKN040

Expired

Conditions
Light Rain
Cloud Levels
  • Scattered at 2,500' AGL
  • Broken at 4,000' AGL

Dec-11@
02:00 UTC

Dec-11 @ 02:00 UTC

Dec-11@
04:00 UTC

Dec-11 @ 04:00 UTC

FM110200 35009KT P6SM SCT030 OVC050

Expired

Wind
  • 350° at 9 KTS
Cloud Levels
  • Scattered at 3,000' AGL
  • Overcast at 5,000' AGL

Dec-11@
02:00 UTC

Dec-11 @ 02:00 UTC

Dec-11@
04:00 UTC

Dec-11 @ 04:00 UTC

TEMPO 1102/1104 -RA OVC025

Expired

Conditions
Light Rain
Cloud Levels
  • Overcast at 2,500' AGL

Dec-11@
04:00 UTC

Dec-11 @ 04:00 UTC

Dec-11@
10:00 UTC

Dec-11 @ 10:00 UTC

FM110400 01010G16KT P6SM OVC020

Expired

Wind
  • 010° at 10 KTS
  • {Gusting to 16 KTS
Cloud Levels
  • Overcast at 2,000' AGL

Dec-11@
06:00 UTC

Dec-11 @ 06:00 UTC

Dec-11@
10:00 UTC

Dec-11 @ 10:00 UTC

TEMPO 1106/1110 5SM -DZ OVC010

Expired

Conditions
Light Drizzle
Cloud Levels
  • Overcast at 1,000' AGL

Dec-11@
10:00 UTC

Dec-11 @ 10:00 UTC

Dec-11@
13:00 UTC

Dec-11 @ 13:00 UTC

FM111000 01012G19KT P6SM BKN015

Expired

Wind
  • 010° at 12 KTS
  • {Gusting to 19 KTS
Cloud Levels
  • Broken at 1,500' AGL

Dec-11@
13:00 UTC

Dec-11 @ 13:00 UTC

Dec-11@
17:00 UTC

Dec-11 @ 17:00 UTC

FM111300 02010G16KT P6SM SCT020 BKN250

From

From Standard forecast or significant change

Wind
  • 020° at 10 KTS
  • {Gusting to 16 KTS
Cloud Levels
  • Scattered at 2,000' AGL
  • Broken at 25,000' AGL

Dec-11@
17:00 UTC

Dec-11 @ 17:00 UTC

Dec-12@
00:00 UTC

Dec-12 @ 00:00 UTC

FM111700 36008KT P6SM SKC

From

From Standard forecast or significant change

Wind
  • 360° at 8 KTS
Cloud Levels
  • Clear skies